createdAt,value
2019-05-26T00:02:12.201Z,9.90
2019-05-26T00:05:07.876Z,9.80
2019-05-26T00:07:41.515Z,9.80
2019-05-26T00:10:15.393Z,9.70
2019-05-26T00:12:56.281Z,9.70
2019-05-26T00:15:29.906Z,9.70
2019-05-26T00:18:03.591Z,9.70
2019-05-26T00:20:45.773Z,9.70
2019-05-26T00:25:52.075Z,9.70
2019-05-26T00:28:36.308Z,9.70
2019-05-26T00:31:09.948Z,9.70
2019-05-26T00:33:47.097Z,9.70
2019-05-26T00:36:20.878Z,9.60
2019-05-26T00:38:54.577Z,9.60
2019-05-26T00:41:35.219Z,9.60
2019-05-26T00:44:09.020Z,9.60
2019-05-26T00:46:43.021Z,9.60
2019-05-26T00:49:26.183Z,9.60
2019-05-26T00:52:00.239Z,9.50
2019-05-26T00:54:38.171Z,9.50
2019-05-26T00:57:11.842Z,9.50
2019-05-26T00:59:48.886Z,9.50
2019-05-26T01:02:22.624Z,9.40
2019-05-26T01:04:56.373Z,9.40
2019-05-26T01:07:38.026Z,9.40
2019-05-26T01:10:11.747Z,9.40
2019-05-26T01:12:45.359Z,9.40
2019-05-26T01:15:31.408Z,9.40
2019-05-26T01:18:06.563Z,9.40
2019-05-26T01:20:40.243Z,9.40
2019-05-26T01:23:18.903Z,9.40
2019-05-26T01:25:52.531Z,9.30
2019-05-26T01:28:26.239Z,9.20
2019-05-26T01:31:09.433Z,9.20
2019-05-26T01:33:43.157Z,9.20
2019-05-26T01:36:17.087Z,9.20
2019-05-26T01:38:59.368Z,9.30
2019-05-26T01:41:32.981Z,9.30
2019-05-26T01:44:06.680Z,9.30
2019-05-26T01:46:41.618Z,9.30
2019-05-26T01:49:15.328Z,9.20
2019-05-26T01:51:49.105Z,9.20
2019-05-26T01:54:23.110Z,9.20
2019-05-26T01:57:01.855Z,9.20
2019-05-26T01:59:35.533Z,9.20
2019-05-26T02:02:09.346Z,9.20
2019-05-26T02:05:02.372Z,9.20
2019-05-26T02:07:36.063Z,9.10
2019-05-26T02:10:12.499Z,9.20
2019-05-26T02:12:46.188Z,9.20
2019-05-26T02:15:20.415Z,9.10
2019-05-26T02:18:04.215Z,9.10
2019-05-26T02:20:37.907Z,9.10
2019-05-26T02:23:11.614Z,9.10
2019-05-26T02:25:52.802Z,9.10
2019-05-26T02:28:26.521Z,9.20
2019-05-26T02:31:00.189Z,9.20
2019-05-26T02:33:38.382Z,9.10
2019-05-26T02:36:12.099Z,9.10
2019-05-26T02:39:00.879Z,9.10
2019-05-26T02:41:25.257Z,9.10
2019-05-26T02:43:58.890Z,9.10
2019-05-26T02:46:32.557Z,9.10
2019-05-26T02:49:12.717Z,9.20
2019-05-26T02:51:46.720Z,9.20
2019-05-26T02:54:20.832Z,9.20
2019-05-26T02:56:54.545Z,9.20
2019-05-26T02:59:45.182Z,9.20
2019-05-26T03:02:19.031Z,9.20
2019-05-26T03:04:52.807Z,9.30
2019-05-26T03:07:30.620Z,9.20
2019-05-26T03:10:05.460Z,9.30
2019-05-26T03:12:48.564Z,9.30
2019-05-26T03:15:22.432Z,9.40
2019-05-26T03:17:57.482Z,9.40
2019-05-26T03:20:39.895Z,9.40
2019-05-26T03:23:15.278Z,9.40
2019-05-26T03:25:48.985Z,9.40
2019-05-26T03:28:26.498Z,9.50
2019-05-26T03:31:00.197Z,9.50
2019-05-26T03:33:33.789Z,9.50
2019-05-26T03:36:10.931Z,9.60
2019-05-26T03:38:44.690Z,9.60
2019-05-26T03:41:18.440Z,9.70
2019-05-26T03:44:06.026Z,9.70
2019-05-26T03:46:39.691Z,9.70
2019-05-26T03:49:13.344Z,9.80
2019-05-26T03:51:48.142Z,9.80
2019-05-26T03:54:21.836Z,9.90
2019-05-26T03:56:55.528Z,9.90
2019-05-26T03:59:29.311Z,10.00
2019-05-26T04:02:03.028Z,10.00
2019-05-26T04:04:48.826Z,10.00
2019-05-26T04:07:22.467Z,10.10
2019-05-26T04:10:04.445Z,10.10
2019-05-26T04:12:31.901Z,10.00
2019-05-26T04:15:08.743Z,10.00
2019-05-26T04:17:42.389Z,10.10
2019-05-26T04:20:16.177Z,10.10
2019-05-26T04:23:11.230Z,10.10
2019-05-26T04:25:44.953Z,10.10
2019-05-26T04:28:24.212Z,10.10
2019-05-26T04:30:57.976Z,10.10
2019-05-26T04:33:31.680Z,10.10
2019-05-26T04:36:13.708Z,10.10
2019-05-26T04:38:47.336Z,10.20
2019-05-26T04:41:21.034Z,10.20
2019-05-26T04:44:02.267Z,10.30
2019-05-26T04:46:35.908Z,10.30
2019-05-26T04:49:09.663Z,10.30
2019-05-26T04:51:47.771Z,10.40
2019-05-26T04:54:21.492Z,10.40
2019-05-26T04:56:55.182Z,10.40
2019-05-26T04:59:28.851Z,10.40
2019-05-26T05:02:06.289Z,10.50
2019-05-26T05:04:39.946Z,10.50
2019-05-26T05:07:13.598Z,10.50
2019-05-26T05:09:48.866Z,10.50
2019-05-26T05:12:22.506Z,10.40
2019-05-26T05:14:56.197Z,10.50
2019-05-26T05:17:50.719Z,10.50
2019-05-26T05:20:24.528Z,10.60
2019-05-26T05:22:58.289Z,10.70
2019-05-26T05:25:40.793Z,10.80
2019-05-26T05:28:14.477Z,10.90
2019-05-26T05:30:48.188Z,10.90
2019-05-26T05:33:23.088Z,11.00
2019-05-26T05:35:56.702Z,11.10
2019-05-26T05:38:30.419Z,11.30
2019-05-26T05:41:22.865Z,11.50
2019-05-26T05:43:56.583Z,11.70
2019-05-26T05:46:30.190Z,12.00
2019-05-26T05:49:11.262Z,12.30
2019-05-26T05:51:44.993Z,12.10
2019-05-26T05:57:00.913Z,11.80
2019-05-26T05:59:37.407Z,11.70
2019-05-26T06:02:11.114Z,11.70
2019-05-26T06:04:44.711Z,11.70
2019-05-26T06:07:23.593Z,11.70
2019-05-26T06:09:57.195Z,12.00
2019-05-26T06:12:31.397Z,12.40
2019-05-26T06:15:10.496Z,12.70
2019-05-26T06:17:44.682Z,12.60
2019-05-26T06:20:19.152Z,12.90
2019-05-26T06:23:05.839Z,13.20
2019-05-26T06:25:40.105Z,13.50
2019-05-26T06:28:14.489Z,13.20
2019-05-26T06:30:54.948Z,13.40
2019-05-26T06:33:29.163Z,13.30
2019-05-26T06:36:06.994Z,13.10
2019-05-26T06:38:41.240Z,13.20
2019-05-26T06:41:31.887Z,13.20
2019-05-26T06:43:55.493Z,13.60
2019-05-26T06:46:29.754Z,13.50
2019-05-26T06:49:04.249Z,13.70
2019-05-26T06:51:45.738Z,13.70
2019-05-26T06:54:20.032Z,13.60
2019-05-26T06:56:57.583Z,13.50
2019-05-26T06:59:31.857Z,13.50
2019-05-26T07:02:06.072Z,13.40
2019-05-26T07:04:47.627Z,13.60
2019-05-26T07:07:21.927Z,13.70
2019-05-26T07:09:56.532Z,13.70
2019-05-26T07:12:38.217Z,13.80
2019-05-26T07:15:13.623Z,13.90
2019-05-26T07:17:47.895Z,14.10
2019-05-26T07:20:27.383Z,14.10
2019-05-26T07:23:01.709Z,14.10
2019-05-26T07:25:35.963Z,13.90
2019-05-26T07:28:11.566Z,13.70
2019-05-26T07:30:45.821Z,13.80
2019-05-26T07:33:20.451Z,13.80
2019-05-26T07:35:56.495Z,13.90
2019-05-26T07:38:30.711Z,14.00
2019-05-26T07:41:05.063Z,14.50
2019-05-26T07:43:39.781Z,14.60
2019-05-26T07:46:14.009Z,14.60
2019-05-26T07:49:00.207Z,14.70
2019-05-26T07:51:34.482Z,14.90
2019-05-26T07:54:25.055Z,15.10
2019-05-26T07:56:52.145Z,14.90
2019-05-26T07:59:26.384Z,15.00
2019-05-26T08:02:00.752Z,14.90
2019-05-26T08:04:35.005Z,15.30
2019-05-26T08:07:12.947Z,15.80
2019-05-26T08:09:47.159Z,16.00
2019-05-26T08:12:27.049Z,15.50
2019-05-26T08:14:57.332Z,15.80
2019-05-26T08:17:44.859Z,15.60
2019-05-26T08:20:19.192Z,15.60
2019-05-26T08:22:53.450Z,15.50
2019-05-26T08:25:35.323Z,15.30
2019-05-26T08:28:09.560Z,15.30
2019-05-26T08:30:43.832Z,15.50
2019-05-26T08:33:19.189Z,15.30
2019-05-26T08:35:53.562Z,15.30
2019-05-26T08:38:27.875Z,15.20
2019-05-26T08:41:13.425Z,15.30
2019-05-26T08:43:47.745Z,15.60
2019-05-26T08:46:21.960Z,15.60
2019-05-26T08:49:00.855Z,15.50
2019-05-26T08:51:35.068Z,15.50
2019-05-26T08:54:09.338Z,15.60
2019-05-26T08:56:49.076Z,15.80
2019-05-26T08:59:26.548Z,15.60
2019-05-26T09:02:00.810Z,15.60
2019-05-26T09:04:35.291Z,15.70
2019-05-26T09:07:17.297Z,15.50
2019-05-26T09:09:51.479Z,15.50
2019-05-26T09:12:25.748Z,15.60
2019-05-26T09:15:09.192Z,15.60
2019-05-26T09:17:43.476Z,15.60
2019-05-26T09:20:18.374Z,15.60
2019-05-26T09:22:57.641Z,15.40
2019-05-26T09:25:31.996Z,15.40
2019-05-26T09:28:06.235Z,15.40
2019-05-26T09:30:43.949Z,15.50
2019-05-26T09:33:18.282Z,15.60
2019-05-26T09:35:52.444Z,15.20
2019-05-26T09:38:34.541Z,15.20
2019-05-26T09:41:08.816Z,15.20
2019-05-26T09:43:43.496Z,15.20
2019-05-26T09:46:24.276Z,15.10
2019-05-26T09:49:00.948Z,15.20
2019-05-26T09:51:34.538Z,15.30
2019-05-26T09:54:19.557Z,15.40
2019-05-26T09:56:53.913Z,15.50
2019-05-26T09:59:28.112Z,15.50
2019-05-26T10:02:06.172Z,15.30
2019-05-26T10:04:41.656Z,15.40
2019-05-26T10:07:16.191Z,15.50
2019-05-26T10:09:50.471Z,15.30
2019-05-26T10:12:31.190Z,15.50
2019-05-26T10:15:08.932Z,15.30
2019-05-26T10:17:43.260Z,15.20
2019-05-26T10:20:21.587Z,15.40
2019-05-26T10:22:55.900Z,15.30
2019-05-26T10:25:30.078Z,15.40
2019-05-26T10:28:09.921Z,15.50
2019-05-26T10:30:44.090Z,15.40
2019-05-26T10:33:23.294Z,15.30
2019-05-26T10:35:57.477Z,15.40
2019-05-26T10:38:31.660Z,15.30
2019-05-26T10:41:06.942Z,15.20
2019-05-26T10:43:47.455Z,15.30
2019-05-26T10:46:17.183Z,15.30
2019-05-26T10:48:51.370Z,15.40
2019-05-26T10:51:37.666Z,15.20
2019-05-26T10:54:12.002Z,15.30
2019-05-26T10:56:46.299Z,15.50
2019-05-26T10:59:27.596Z,15.80
2019-05-26T11:02:01.862Z,16.00
2019-05-26T11:04:36.126Z,16.00
2019-05-26T11:07:10.393Z,15.90
2019-05-26T11:09:53.861Z,15.70
2019-05-26T11:12:28.146Z,15.60
2019-05-26T11:15:09.445Z,15.70
2019-05-26T11:17:43.644Z,15.60
2019-05-26T11:20:19.426Z,15.40
2019-05-26T11:22:55.859Z,15.40
2019-05-26T11:25:30.099Z,15.30
2019-05-26T11:28:04.669Z,15.40
2019-05-26T11:30:45.029Z,15.40
2019-05-26T11:33:19.273Z,15.30
2019-05-26T11:35:58.268Z,15.30
2019-05-26T11:38:33.682Z,15.20
2019-05-26T11:41:10.328Z,15.30
2019-05-26T11:43:44.538Z,15.30
2019-05-26T11:46:24.319Z,15.30
2019-05-26T11:48:58.531Z,15.30
2019-05-26T11:51:40.104Z,15.30
2019-05-26T11:54:14.252Z,15.40
2019-05-26T11:56:49.957Z,15.50
2019-05-26T11:59:24.113Z,15.50
2019-05-26T12:02:02.596Z,15.50
2019-05-26T12:04:36.804Z,15.50
2019-05-26T12:07:10.972Z,15.60
2019-05-26T12:09:50.502Z,15.60
2019-05-26T12:12:24.725Z,15.50
2019-05-26T12:15:12.159Z,15.70
2019-05-26T12:17:46.456Z,15.70
2019-05-26T12:20:20.814Z,15.70
2019-05-26T12:22:55.211Z,15.80
2019-05-26T12:25:29.456Z,15.80
2019-05-26T12:28:03.744Z,15.80
2019-05-26T12:30:42.652Z,15.80
2019-05-26T12:33:16.912Z,15.90
2019-05-26T12:35:51.176Z,15.90
2019-05-26T12:38:36.903Z,16.00
2019-05-26T12:41:11.211Z,16.00
2019-05-26T12:43:45.494Z,16.00
2019-05-26T12:46:23.508Z,16.00
2019-05-26T12:48:57.767Z,16.00
2019-05-26T12:51:32.077Z,16.00
2019-05-26T12:54:13.570Z,16.00
2019-05-26T12:56:47.796Z,16.10
2019-05-26T12:59:25.470Z,16.10
2019-05-26T13:01:59.711Z,16.20
2019-05-26T13:04:33.979Z,16.10
2019-05-26T13:07:08.230Z,16.20
2019-05-26T13:09:42.459Z,16.20
2019-05-26T13:12:16.725Z,16.30
2019-05-26T13:15:06.146Z,16.40
2019-05-26T13:17:39.951Z,16.40
2019-05-26T13:20:15.865Z,16.50
2019-05-26T13:22:50.055Z,16.50
2019-05-26T13:25:29.797Z,16.50
2019-05-26T13:28:04.120Z,16.70
2019-05-26T13:30:42.872Z,16.90
2019-05-26T13:33:17.130Z,17.20
2019-05-26T13:35:51.482Z,17.40
2019-05-26T13:38:29.339Z,17.50
2019-05-26T13:41:03.578Z,17.50
2019-05-26T13:43:37.848Z,17.60
2019-05-26T13:46:15.391Z,17.40
2019-05-26T13:48:49.673Z,17.40
2019-05-26T13:51:23.891Z,17.20
2019-05-26T13:54:09.647Z,17.20
2019-05-26T13:56:43.875Z,17.10
2019-05-26T13:59:18.090Z,17.00
2019-05-26T14:01:58.482Z,17.00
2019-05-26T14:04:32.756Z,17.00
2019-05-26T14:07:06.995Z,16.90
2019-05-26T14:09:41.209Z,17.00
2019-05-26T14:12:17.081Z,17.00
2019-05-26T14:14:51.335Z,16.90
2019-05-26T14:17:27.249Z,16.90
2019-05-26T14:20:14.239Z,16.80
2019-05-26T14:22:48.468Z,16.70
2019-05-26T14:25:22.698Z,16.70
2019-05-26T14:28:00.469Z,16.50
2019-05-26T14:30:34.983Z,16.40
2019-05-26T14:33:16.299Z,16.20
2019-05-26T14:35:50.543Z,16.30
2019-05-26T14:38:24.727Z,16.40
2019-05-26T14:41:04.078Z,16.30
2019-05-26T14:43:38.325Z,16.40
2019-05-26T14:46:13.803Z,16.50
2019-05-26T14:48:47.985Z,16.60
2019-05-26T14:51:22.202Z,16.50
2019-05-26T14:54:06.368Z,16.50
2019-05-26T14:56:40.605Z,16.40
2019-05-26T14:59:15.006Z,16.40
2019-05-26T15:01:54.473Z,16.30
2019-05-26T15:04:31.134Z,16.40
2019-05-26T15:07:04.773Z,16.40
2019-05-26T15:09:42.155Z,16.50
2019-05-26T15:12:16.470Z,16.70
2019-05-26T15:14:57.176Z,16.80
2019-05-26T15:17:31.535Z,16.90
2019-05-26T15:20:06.771Z,17.10
2019-05-26T15:22:42.482Z,17.30
2019-05-26T15:25:16.819Z,17.30
2019-05-26T15:27:51.117Z,17.40
2019-05-26T15:30:33.115Z,17.30
2019-05-26T15:33:07.341Z,17.40
2019-05-26T15:35:44.815Z,17.30
2019-05-26T15:38:20.094Z,17.30
2019-05-26T15:40:54.349Z,17.20
2019-05-26T15:43:28.649Z,17.20
2019-05-26T15:46:24.107Z,17.10
2019-05-26T15:48:48.542Z,17.00
2019-05-26T15:51:22.732Z,17.00
2019-05-26T15:54:01.274Z,17.10
2019-05-26T15:56:35.551Z,17.10
2019-05-26T15:59:09.846Z,17.10
2019-05-26T16:01:48.719Z,17.10
2019-05-26T16:04:23.012Z,17.10
2019-05-26T16:07:04.806Z,17.20
2019-05-26T16:09:39.004Z,17.20
2019-05-26T16:12:13.357Z,17.20
2019-05-26T16:14:49.613Z,17.20
2019-05-26T16:17:23.834Z,17.20
2019-05-26T16:19:58.078Z,17.20
2019-05-26T16:22:40.870Z,17.10
2019-05-26T16:25:15.518Z,17.10
2019-05-26T16:27:49.991Z,17.10
2019-05-26T16:30:27.350Z,17.10
2019-05-26T16:33:01.850Z,17.00
2019-05-26T16:35:36.318Z,17.00
2019-05-26T16:38:14.423Z,17.10
2019-05-26T16:40:48.753Z,17.10
2019-05-26T16:43:22.970Z,17.20
2019-05-26T16:46:00.692Z,17.20
2019-05-26T16:48:34.943Z,17.10
2019-05-26T16:51:09.190Z,17.10
2019-05-26T16:53:56.969Z,17.10
2019-05-26T16:56:31.174Z,17.10
2019-05-26T16:59:05.655Z,17.10
2019-05-26T17:01:43.225Z,17.10
2019-05-26T17:04:17.566Z,17.10
2019-05-26T17:06:51.843Z,17.10
2019-05-26T17:09:26.170Z,17.00
2019-05-26T17:12:02.978Z,17.00
2019-05-26T17:14:37.244Z,17.00
2019-05-26T17:17:14.986Z,16.90
2019-05-26T17:19:53.489Z,16.90
2019-05-26T17:22:27.791Z,17.00
2019-05-26T17:25:02.010Z,17.00
2019-05-26T17:27:36.379Z,17.00
2019-05-26T17:30:11.102Z,17.00
2019-05-26T17:32:45.499Z,16.90
2019-05-26T17:35:19.942Z,16.90
2019-05-26T17:37:54.646Z,17.00
2019-05-26T17:40:28.991Z,17.00
2019-05-26T17:43:03.372Z,17.10
2019-05-26T17:45:54.060Z,17.10
2019-05-26T17:48:28.274Z,17.10
2019-05-26T17:51:02.601Z,17.10
2019-05-26T17:53:50.602Z,17.20
2019-05-26T17:56:24.940Z,17.20
2019-05-26T17:58:59.239Z,17.20
2019-05-26T18:01:40.171Z,17.20
2019-05-26T18:04:14.374Z,17.20
2019-05-26T18:06:48.735Z,17.10
2019-05-26T18:09:43.286Z,17.00
2019-05-26T18:12:06.635Z,17.00
2019-05-26T18:14:40.958Z,16.90
2019-05-26T18:17:19.170Z,16.90
2019-05-26T18:19:53.491Z,16.80
2019-05-26T18:22:27.683Z,16.80
2019-05-26T18:25:09.131Z,16.70
2019-05-26T18:27:43.406Z,16.60
2019-05-26T18:30:18.849Z,16.60
2019-05-26T18:32:56.704Z,16.60
2019-05-26T18:35:30.864Z,16.60
2019-05-26T18:38:05.201Z,16.60
2019-05-26T18:40:41.472Z,16.70
2019-05-26T18:43:15.713Z,16.70
2019-05-26T18:45:50.000Z,16.70
2019-05-26T18:48:43.179Z,16.60
2019-05-26T18:51:17.403Z,16.60
2019-05-26T18:53:51.675Z,16.60
2019-05-26T18:56:26.035Z,16.50
2019-05-26T18:59:00.200Z,16.50
2019-05-26T19:01:36.258Z,16.50
2019-05-26T19:04:10.655Z,16.40
2019-05-26T19:06:44.946Z,16.40
2019-05-26T19:09:19.197Z,16.30
2019-05-26T19:11:53.507Z,16.30
2019-05-26T19:14:40.140Z,16.30
2019-05-26T19:17:14.572Z,16.30
2019-05-26T19:19:48.744Z,16.30
2019-05-26T19:22:24.951Z,16.20
2019-05-26T19:24:59.293Z,16.20
2019-05-26T19:27:33.594Z,16.20
2019-05-26T19:30:16.236Z,16.10
2019-05-26T19:32:50.589Z,16.00
2019-05-26T19:35:24.769Z,16.00
2019-05-26T19:38:03.930Z,15.90
2019-05-26T19:40:38.201Z,15.80
2019-05-26T19:43:16.162Z,15.80
2019-05-26T19:45:50.360Z,15.60
2019-05-26T19:48:35.798Z,15.60
2019-05-26T19:51:03.825Z,15.60
2019-05-26T19:53:38.081Z,15.60
2019-05-26T19:56:17.523Z,15.60
2019-05-26T19:58:51.948Z,15.50
2019-05-26T20:01:26.203Z,15.50
2019-05-26T20:04:07.932Z,15.50
2019-05-26T20:06:44.062Z,15.40
2019-05-26T20:09:18.120Z,15.40
2019-05-26T20:11:52.931Z,15.40
2019-05-26T20:14:27.182Z,15.40
2019-05-26T20:17:01.557Z,15.40
2019-05-26T20:19:35.787Z,15.40
2019-05-26T20:22:18.973Z,15.30
2019-05-26T20:24:53.651Z,15.30
2019-05-26T20:27:27.940Z,15.40
2019-05-26T20:30:02.217Z,15.30
2019-05-26T20:32:36.461Z,15.30
2019-05-26T20:35:16.896Z,15.20
2019-05-26T20:37:51.090Z,15.20
2019-05-26T20:40:25.790Z,15.20
2019-05-26T20:43:13.344Z,15.20
2019-05-26T20:45:47.547Z,15.20
2019-05-26T20:48:22.044Z,15.20
2019-05-26T20:51:00.018Z,15.20
2019-05-26T20:53:34.174Z,15.20
2019-05-26T20:56:08.377Z,15.20
2019-05-26T20:58:49.634Z,15.20
2019-05-26T21:01:23.973Z,15.20
2019-05-26T21:03:58.137Z,15.20
2019-05-26T21:06:35.528Z,15.20
2019-05-26T21:09:11.220Z,15.20
2019-05-26T21:11:45.619Z,15.20
2019-05-26T21:14:20.802Z,15.20
2019-05-26T21:17:03.380Z,15.10
2019-05-26T21:19:37.523Z,15.20
2019-05-26T21:22:11.730Z,15.10
2019-05-26T21:24:52.154Z,15.10
2019-05-26T21:27:26.450Z,15.10
2019-05-26T21:30:00.674Z,15.10
2019-05-26T21:32:39.721Z,15.10
2019-05-26T21:35:14.627Z,15.10
2019-05-26T21:37:48.871Z,15.10
2019-05-26T21:40:30.389Z,15.10
2019-05-26T21:43:04.697Z,15.10
2019-05-26T21:45:38.905Z,15.10
2019-05-26T21:48:20.386Z,15.00
2019-05-26T21:50:54.665Z,15.00
2019-05-26T21:53:28.943Z,15.00
2019-05-26T21:56:03.198Z,15.00
2019-05-26T21:58:37.417Z,15.00
2019-05-26T22:01:11.654Z,15.00
2019-05-26T22:03:46.905Z,15.00
2019-05-26T22:06:21.133Z,15.00
2019-05-26T22:08:55.391Z,15.00
2019-05-26T22:11:31.604Z,15.00
2019-05-26T22:14:05.959Z,15.00
2019-05-26T22:16:54.283Z,15.00
2019-05-26T22:19:28.616Z,15.00
2019-05-26T22:22:02.971Z,15.00
2019-05-26T22:24:40.182Z,15.00
2019-05-26T22:27:14.395Z,15.00
2019-05-26T22:29:48.952Z,15.00
2019-05-26T22:32:26.821Z,15.00
2019-05-26T22:35:00.979Z,15.00
2019-05-26T22:37:35.259Z,14.90
2019-05-26T22:40:11.733Z,14.90
2019-05-26T22:42:45.997Z,14.90
2019-05-26T22:45:20.810Z,14.90
2019-05-26T22:48:00.029Z,14.90
2019-05-26T22:50:34.187Z,14.90
2019-05-26T22:53:08.371Z,14.90
2019-05-26T22:55:52.285Z,14.90
2019-05-26T22:58:26.443Z,14.90
2019-05-26T23:01:00.711Z,14.90
2019-05-26T23:03:46.890Z,14.90
2019-05-26T23:06:21.153Z,14.90
2019-05-26T23:08:55.325Z,14.90
2019-05-26T23:11:32.998Z,14.90
2019-05-26T23:14:07.226Z,14.90
2019-05-26T23:16:52.341Z,14.90
2019-05-26T23:19:26.737Z,14.90
2019-05-26T23:22:03.616Z,15.00
2019-05-26T23:24:37.885Z,14.90
2019-05-26T23:27:15.624Z,14.90
2019-05-26T23:29:49.840Z,14.90
2019-05-26T23:32:27.349Z,14.90
2019-05-26T23:35:01.662Z,14.90
2019-05-26T23:37:36.690Z,14.90
2019-05-26T23:40:11.482Z,14.90
2019-05-26T23:42:45.640Z,14.90
2019-05-26T23:45:19.813Z,14.90
2019-05-26T23:48:02.457Z,14.90
2019-05-26T23:50:36.711Z,14.90
2019-05-26T23:53:11.030Z,14.90
2019-05-26T23:55:56.279Z,14.90
2019-05-26T23:58:30.553Z,14.90
